createdAt,value
2023-01-31T00:00:41.372Z,44.9
2023-01-31T00:05:59.606Z,44.3
2023-01-31T00:11:18.146Z,45
2023-01-31T00:16:36.885Z,45
2023-01-31T00:21:55.682Z,45.1
2023-01-31T00:27:14.289Z,44.3
2023-01-31T00:32:32.843Z,44.3
2023-01-31T00:37:50.762Z,44.8
2023-01-31T00:43:09.331Z,44.9
2023-01-31T00:48:27.831Z,45.2
2023-01-31T00:53:46.046Z,44.4
2023-01-31T00:59:04.979Z,44.6
2023-01-31T01:04:23.146Z,44.8
2023-01-31T01:09:41.363Z,44.6
2023-01-31T01:14:59.352Z,44.8
2023-01-31T01:20:18.105Z,45.1
2023-01-31T01:25:37.887Z,45.5
2023-01-31T01:30:56.200Z,44.6
2023-01-31T01:36:14.688Z,45.4
2023-01-31T01:41:33.567Z,45.5
2023-01-31T01:46:52.405Z,45.5
2023-01-31T01:52:11.209Z,45.4
2023-01-31T01:57:31.302Z,44.9
2023-01-31T02:02:49.761Z,44.6
2023-01-31T02:08:08.333Z,44.8
2023-01-31T02:13:30.254Z,44.8
2023-01-31T02:18:48.479Z,44.6
2023-01-31T02:24:07.179Z,44.8
2023-01-31T02:29:26.616Z,45.4
2023-01-31T02:34:44.952Z,44.6
2023-01-31T02:40:03.707Z,45.4
2023-01-31T02:45:24.347Z,44.9
2023-01-31T02:50:42.511Z,44.5
2023-01-31T02:56:01.251Z,45.6
2023-01-31T03:01:20.549Z,44.6
2023-01-31T03:06:38.873Z,44.8
2023-01-31T03:11:57.341Z,44.5
2023-01-31T03:17:15.836Z,44.5
2023-01-31T03:22:34.366Z,45.4
2023-01-31T03:27:52.827Z,44.6
2023-01-31T03:33:10.995Z,45.4
2023-01-31T03:38:29.682Z,45
2023-01-31T03:43:48.004Z,44.4
2023-01-31T03:49:06.509Z,44.8
2023-01-31T03:54:25.038Z,44.7
2023-01-31T03:59:43.240Z,44.3
2023-01-31T04:05:01.441Z,45.1
2023-01-31T04:10:19.688Z,44.4
2023-01-31T04:15:37.604Z,44.3
2023-01-31T04:20:56.091Z,45.1
2023-01-31T04:26:14.408Z,44.6
2023-01-31T04:31:33.411Z,44.7
2023-01-31T04:36:51.984Z,44.2
2023-01-31T04:42:11.144Z,44.8
2023-01-31T04:47:29.643Z,44.8
2023-01-31T04:52:48.105Z,44.8
2023-01-31T04:58:08.665Z,44.5
2023-01-31T05:03:27.341Z,43.3
2023-01-31T05:08:45.524Z,44.1
2023-01-31T05:14:03.782Z,43.1
2023-01-31T05:19:22.410Z,43.8
2023-01-31T05:24:41.219Z,44.1
2023-01-31T05:30:00.525Z,43.9
2023-01-31T05:35:20.532Z,46.1
2023-01-31T05:40:39.457Z,46.9
2023-01-31T05:45:58.488Z,46.4
2023-01-31T05:51:16.680Z,47.9
2023-01-31T05:56:35.212Z,49.9
2023-01-31T06:01:54.150Z,50.2
2023-01-31T06:07:12.427Z,50.2
2023-01-31T06:12:32.491Z,50.3
2023-01-31T06:17:51.381Z,50.2
2023-01-31T06:23:09.646Z,50.9
2023-01-31T06:28:27.884Z,51.8
2023-01-31T06:33:48.751Z,51.4
2023-01-31T06:39:07.482Z,51.8
2023-01-31T06:44:28.110Z,51
2023-01-31T06:49:46.694Z,50
2023-01-31T06:55:04.612Z,52
2023-01-31T07:00:23.399Z,51.7
2023-01-31T07:05:42.114Z,51.9
2023-01-31T07:11:00.564Z,52.5
2023-01-31T07:16:19.187Z,52.6
2023-01-31T07:21:37.543Z,52
2023-01-31T07:26:57.345Z,51.2
2023-01-31T07:32:15.912Z,53.3
2023-01-31T07:37:34.248Z,51.8
2023-01-31T07:42:52.952Z,51.7
2023-01-31T07:48:11.814Z,52
2023-01-31T07:53:17.020Z,51.8
2023-01-31T07:58:35.783Z,51.7
2023-01-31T08:03:54.675Z,51.2
2023-01-31T08:09:13.265Z,51.6
2023-01-31T08:14:16.107Z,52.2
2023-01-31T08:19:34.881Z,51.8
2023-01-31T08:24:53.775Z,51.5
2023-01-31T08:30:11.973Z,50
2023-01-31T08:35:30.723Z,50.3
2023-01-31T08:40:49.138Z,50.4
2023-01-31T08:46:07.335Z,49.6
2023-01-31T08:51:25.316Z,49.6
2023-01-31T08:56:43.856Z,49.6
2023-01-31T09:02:02.728Z,49.1
2023-01-31T09:07:21.627Z,49.2
2023-01-31T09:12:40.147Z,48.8
2023-01-31T09:17:59.095Z,48.3
2023-01-31T09:23:18.053Z,48.3
2023-01-31T09:28:21.185Z,49.3
2023-01-31T09:33:40.104Z,48.8
2023-01-31T09:38:58.872Z,48
2023-01-31T09:44:17.499Z,47.9
2023-01-31T09:49:35.461Z,48.6
2023-01-31T09:54:53.425Z,47.6
2023-01-31T10:00:12.045Z,47.6
2023-01-31T10:05:31.783Z,47.5
2023-01-31T10:10:50.103Z,47.3
2023-01-31T10:16:08.371Z,46.3
2023-01-31T10:21:26.855Z,46.3
2023-01-31T10:26:45.265Z,46
2023-01-31T10:31:48.263Z,45.9
2023-01-31T10:37:06.701Z,45.8
2023-01-31T10:42:25.178Z,45.8
2023-01-31T10:47:45.280Z,47.2
2023-01-31T10:53:03.781Z,46.9
2023-01-31T10:58:22.695Z,46.1
2023-01-31T11:03:40.920Z,45.9
2023-01-31T11:08:59.112Z,46.1
2023-01-31T11:14:17.618Z,46.1
2023-01-31T11:19:36.401Z,46.6
2023-01-31T11:24:54.903Z,45.9
2023-01-31T11:30:13.132Z,46
2023-01-31T11:35:31.401Z,46.3
2023-01-31T11:40:49.521Z,45.8
2023-01-31T11:46:08.080Z,45.5
2023-01-31T11:51:26.332Z,45.2
2023-01-31T11:56:44.584Z,46.3
2023-01-31T12:02:03.775Z,45.3
2023-01-31T12:07:22.659Z,45.1
2023-01-31T12:12:41.154Z,45.6
2023-01-31T12:17:59.935Z,45.6
2023-01-31T12:23:18.032Z,45.5
2023-01-31T12:28:36.501Z,45.5
2023-01-31T12:33:55.261Z,45.6
2023-01-31T12:39:13.584Z,45
2023-01-31T12:44:32.175Z,45.2
2023-01-31T12:49:50.420Z,44.4
2023-01-31T12:55:08.803Z,44.2
2023-01-31T13:00:27.304Z,45.1
2023-01-31T13:05:45.517Z,44.9
2023-01-31T13:11:04.425Z,44.8
2023-01-31T13:16:23.225Z,45.2
2023-01-31T13:21:41.440Z,45.6
2023-01-31T13:27:00.247Z,44.6
2023-01-31T13:32:18.143Z,44.8
2023-01-31T13:37:36.376Z,44
2023-01-31T13:42:54.595Z,43.5
2023-01-31T13:48:13.061Z,44.9
2023-01-31T13:53:31.550Z,43.8
2023-01-31T13:58:49.630Z,44.4
2023-01-31T14:04:07.876Z,44.2
2023-01-31T14:09:26.086Z,44.4
2023-01-31T14:14:44.729Z,43.6
2023-01-31T14:20:03.509Z,45.4
2023-01-31T14:25:22.754Z,44.9
2023-01-31T14:30:41.365Z,44.2
2023-01-31T14:36:00.819Z,44.7
2023-01-31T14:41:18.732Z,44.5
2023-01-31T14:46:37.159Z,43.4
2023-01-31T14:51:55.616Z,43.7
2023-01-31T14:57:13.821Z,43.5
2023-01-31T15:02:33.265Z,43.9
2023-01-31T15:07:51.501Z,43.5
2023-01-31T15:13:09.751Z,44.1
2023-01-31T15:18:28.292Z,43.6
2023-01-31T15:23:46.205Z,44.7
2023-01-31T15:29:04.699Z,44.2
2023-01-31T15:34:23.224Z,43.6
2023-01-31T15:39:41.421Z,43.8
2023-01-31T15:45:00.432Z,42.9
2023-01-31T15:50:19.628Z,43.6
2023-01-31T15:55:38.103Z,43.7
2023-01-31T16:00:56.681Z,43.6
2023-01-31T16:06:15.496Z,43.7
2023-01-31T16:11:35.010Z,42.4
2023-01-31T16:16:53.472Z,42.9
2023-01-31T16:22:11.731Z,43.8
2023-01-31T16:27:30.464Z,43.4
2023-01-31T16:32:49.212Z,43
2023-01-31T16:38:07.475Z,43.4
2023-01-31T16:43:25.953Z,44.6
2023-01-31T16:48:44.772Z,44.2
2023-01-31T16:54:03.289Z,43.6
2023-01-31T16:59:21.769Z,44
2023-01-31T17:04:40.311Z,43.6
2023-01-31T17:10:02.959Z,44.1
2023-01-31T17:15:34.625Z,44
2023-01-31T17:20:58.042Z,42.8
2023-01-31T17:26:21.726Z,42
2023-01-31T17:31:45.375Z,43.1
2023-01-31T17:37:03.577Z,41.3
2023-01-31T17:42:25.065Z,41.8
2023-01-31T17:47:52.947Z,41.1
2023-01-31T17:53:15.586Z,41.1
2023-01-31T17:58:33.943Z,41.1
2023-01-31T18:03:58.725Z,41.7
2023-01-31T18:09:17.456Z,41.6
2023-01-31T18:14:36.247Z,41.6
2023-01-31T18:19:39.416Z,41.8
2023-01-31T18:24:57.686Z,42.3
2023-01-31T18:30:16.303Z,42.6
2023-01-31T18:35:34.487Z,42.2
2023-01-31T18:40:52.494Z,40.8
2023-01-31T18:46:11.387Z,42.4
2023-01-31T18:51:29.713Z,42.3
2023-01-31T18:56:51.139Z,42.7
2023-01-31T19:02:09.996Z,43.5
2023-01-31T19:07:28.581Z,43.5
2023-01-31T19:12:47.927Z,42.5
2023-01-31T19:18:06.606Z,43.3
2023-01-31T19:23:25.531Z,42.4
2023-01-31T19:28:44.710Z,43.4
2023-01-31T19:34:03.040Z,43.1
2023-01-31T19:39:21.831Z,43.5
2023-01-31T19:44:40.050Z,43.3
2023-01-31T19:49:59.071Z,42.6
2023-01-31T19:55:17.742Z,42.8
2023-01-31T20:00:36.065Z,43.5
2023-01-31T20:05:54.349Z,43.6
2023-01-31T20:11:12.688Z,43.1
2023-01-31T20:16:31.079Z,43
2023-01-31T20:21:50.243Z,43.6
2023-01-31T20:27:08.839Z,42.9
2023-01-31T20:32:26.984Z,42.9
2023-01-31T20:37:45.339Z,43.5
2023-01-31T20:43:03.569Z,42.9
2023-01-31T20:48:09.058Z,42.7
2023-01-31T20:53:27.355Z,42.9
2023-01-31T20:58:45.829Z,43.7
2023-01-31T21:04:04.306Z,43.2
2023-01-31T21:09:24.395Z,43.9
2023-01-31T21:14:42.862Z,43.3
2023-01-31T21:20:01.609Z,44.2
2023-01-31T21:25:20.514Z,43.8
2023-01-31T21:30:39.170Z,43.8
2023-01-31T21:35:57.766Z,43.9
2023-01-31T21:41:16.115Z,43.8
2023-01-31T21:46:34.275Z,43.8
2023-01-31T21:51:52.564Z,43.5
2023-01-31T21:57:10.906Z,44.1
2023-01-31T22:02:29.167Z,44.5
2023-01-31T22:07:47.389Z,44.1
2023-01-31T22:13:05.916Z,45.1
2023-01-31T22:18:24.657Z,44.4
2023-01-31T22:23:42.897Z,44.4
2023-01-31T22:29:01.455Z,44.6
2023-01-31T22:34:19.893Z,44.7
2023-01-31T22:39:38.399Z,44.7
2023-01-31T22:44:57.216Z,45.1
2023-01-31T22:50:15.682Z,45.8
2023-01-31T22:55:35.368Z,45
2023-01-31T23:00:54.894Z,45.8
2023-01-31T23:06:13.034Z,45.2
2023-01-31T23:11:31.561Z,45.1
2023-01-31T23:16:49.867Z,45.9
2023-01-31T23:22:08.065Z,45.4
2023-01-31T23:27:26.830Z,45.4
2023-01-31T23:32:45.372Z,45.9
2023-01-31T23:38:03.883Z,46
2023-01-31T23:43:22.642Z,46.1
2023-01-31T23:48:41.240Z,45.5
2023-01-31T23:53:59.969Z,45.7
2023-01-31T23:59:21.397Z,45.6
